McClellanville, South Carolina
Current Conditions -  °F | °C
As of 3:55 PM on Thursday 27 Nov 2014 (Local Time) from KGGE Reporting Station
Broken Clouds Broken Clouds  
Wind Chill: 52°   Ceiling: 7000
Heat Index: 52°   Visibility: 10mi
Dew Point: 34°   Wind: 12mph
Humidity: 50%   Direction: 300°WNW
Pressure: 30.13"   Gusts: 17mph
Location:  33.09°N, 79.46°W
Report Text: KGGE 272055Z AUTO 30010G15KT 10SM SCT060 BKN070 11/01 A3013 RMK AO2
Loading
Personal Weather Stations






























Interactive Weather Map New forecast layout! Learn more

10-Day Weather Forecast

Advertisements
Track Severe Weather on mobile